Terminal Aerodrome Forecast
Issued by NWS Charleston, WV

Current Version | Previous Version | Text Only | Print | Product List | Glossary Off
Versions: 1 2 3 4 5 6 7 8 9 10 11 12 13 14 15 16 17 18 19 20 21 22 23

000
FTUS41 KRLX 301500 AAA
TAFCRW
TAF AMD
KCRW 301502Z 3015/0112 32009KT P6SM SCT050 BKN080
     FM301800 30009G14KT 5SM SHRA BKN045
     FM010200 30006KT 5SM -SHRA BR OVC030
     FM010700 30006KT 4SM BR OVC012=

USA.gov is the U.S. government's official web portal to all federal, state and local government web resources and services.